createdAt,value
2022-10-14T00:02:07.547Z,33.75
2022-10-14T00:04:38.815Z,25.30
2022-10-14T00:07:07.938Z,29.30
2022-10-14T00:09:42.841Z,37.50
2022-10-14T00:12:11.994Z,41.47
2022-10-14T00:14:42.361Z,39.22
2022-10-14T00:17:11.749Z,32.25
2022-10-14T00:19:40.131Z,30.02
2022-10-14T00:22:09.345Z,36.53
2022-10-14T00:24:40.613Z,34.10
2022-10-14T00:27:09.856Z,40.25
2022-10-14T00:29:39.516Z,41.88
2022-10-14T00:32:09.705Z,40.60
2022-10-14T00:34:38.714Z,34.92
2022-10-14T00:37:07.545Z,43.95
2022-10-14T00:39:36.994Z,43.92
2022-10-14T00:42:06.034Z,44.95
2022-10-14T00:44:44.773Z,38.17
2022-10-14T00:47:14.037Z,43.05
2022-10-14T00:49:43.817Z,36.75
2022-10-14T00:52:17.093Z,35.75
2022-10-14T00:54:47.360Z,42.33
2022-10-14T00:57:17.852Z,44.80
2022-10-14T00:59:47.683Z,42.97
2022-10-14T01:02:16.304Z,44.92
2022-10-14T01:04:45.310Z,41.20
2022-10-14T01:07:16.012Z,48.35
2022-10-14T01:09:54.689Z,48.55
2022-10-14T01:12:29.725Z,49.38
2022-10-14T01:15:08.002Z,40.28
2022-10-14T01:17:37.814Z,42.55
2022-10-14T01:20:15.243Z,39.75
2022-10-14T01:23:02.185Z,51.03
2022-10-14T01:25:35.906Z,43.33
2022-10-14T01:28:04.118Z,46.88
2022-10-14T01:30:35.088Z,44.28
2022-10-14T01:33:06.150Z,45.97
2022-10-14T01:35:45.224Z,56.95
2022-10-14T01:38:20.671Z,50.83
2022-10-14T01:41:04.491Z,52.65
2022-10-14T01:43:33.564Z,48.97
2022-10-14T01:46:05.017Z,48.60
2022-10-14T01:48:37.271Z,46.63
2022-10-14T01:51:09.895Z,44.50
2022-10-14T01:53:41.562Z,48.28
2022-10-14T01:56:10.668Z,49.22
2022-10-14T01:58:40.906Z,48.40
2022-10-14T02:01:09.990Z,53.00
2022-10-14T02:03:42.446Z,51.00
2022-10-14T02:06:31.004Z,58.92
2022-10-14T02:09:15.957Z,55.75
2022-10-14T02:11:53.316Z,56.25
2022-10-14T02:14:33.744Z,56.33
2022-10-14T02:17:05.599Z,61.60
2022-10-14T02:19:45.067Z,67.70
2022-10-14T02:22:22.855Z,70.10
2022-10-14T02:24:53.765Z,81.28
2022-10-14T02:27:23.128Z,84.32
2022-10-14T02:29:52.512Z,91.10
2022-10-14T02:32:22.213Z,100.82
2022-10-14T02:34:54.251Z,90.63
2022-10-14T02:37:23.640Z,87.80
2022-10-14T02:40:03.326Z,86.30
2022-10-14T02:42:36.626Z,71.80
2022-10-14T02:45:08.601Z,69.40
2022-10-14T02:47:39.788Z,71.43
2022-10-14T02:50:10.413Z,64.70
2022-10-14T02:52:57.436Z,62.42
2022-10-14T02:55:26.848Z,52.60
2022-10-14T02:57:55.696Z,55.42
2022-10-14T03:00:24.254Z,54.95
2022-10-14T03:03:13.421Z,57.95
2022-10-14T03:05:43.622Z,52.53
2022-10-14T03:08:15.536Z,50.65
2022-10-14T03:10:49.497Z,57.95
2022-10-14T03:13:18.503Z,51.65
2022-10-14T03:15:50.806Z,51.33
2022-10-14T03:18:25.344Z,50.63
2022-10-14T03:20:59.347Z,45.00
2022-10-14T03:23:40.567Z,46.65
2022-10-14T03:26:13.827Z,46.33
2022-10-14T03:28:46.510Z,49.72
2022-10-14T03:31:21.867Z,49.72
2022-10-14T03:34:15.777Z,56.42
2022-10-14T03:36:47.470Z,50.00
2022-10-14T03:39:15.985Z,48.20
2022-10-14T03:41:51.775Z,45.97
2022-10-14T03:44:25.143Z,51.88
2022-10-14T03:47:13.328Z,51.83
2022-10-14T03:49:42.068Z,50.38
2022-10-14T03:52:21.361Z,50.75
2022-10-14T03:55:00.895Z,54.00
2022-10-14T03:57:33.143Z,49.97
2022-10-14T04:00:03.142Z,54.42
2022-10-14T04:03:00.982Z,56.38
2022-10-14T04:05:35.856Z,50.97
2022-10-14T04:08:13.615Z,46.63
2022-10-14T04:10:52.620Z,49.25
2022-10-14T04:13:22.960Z,52.13
2022-10-14T04:15:53.088Z,53.13
2022-10-14T04:18:36.992Z,47.22
2022-10-14T04:21:08.879Z,52.08
2022-10-14T04:23:38.616Z,46.92
2022-10-14T04:26:19.429Z,42.13
2022-10-14T04:28:51.084Z,46.05
2022-10-14T04:31:35.384Z,49.53
2022-10-14T04:34:10.584Z,42.83
2022-10-14T04:36:50.057Z,41.78
2022-10-14T04:39:37.982Z,38.40
2022-10-14T04:42:07.791Z,36.25
2022-10-14T04:44:37.440Z,35.88
2022-10-14T04:47:06.911Z,32.22
2022-10-14T04:49:39.905Z,30.00
2022-10-14T04:52:14.951Z,25.05
2022-10-14T04:54:56.176Z,29.13
2022-10-14T04:57:39.616Z,28.33
2022-10-14T05:03:10.261Z,28.77
2022-10-14T05:05:40.487Z,24.33
2022-10-14T05:08:11.259Z,30.15
2022-10-14T05:10:50.218Z,30.60
2022-10-14T05:13:32.798Z,35.20
2022-10-14T05:16:07.189Z,29.73
2022-10-14T05:18:38.927Z,40.00
2022-10-14T05:21:13.348Z,35.00
2022-10-14T05:24:14.317Z,33.67
2022-10-14T05:29:19.096Z,36.70
2022-10-14T05:31:51.601Z,35.17
2022-10-14T05:34:29.092Z,36.15
2022-10-14T05:36:58.484Z,36.33
2022-10-14T05:39:30.617Z,36.88
2022-10-14T05:42:02.175Z,35.67
2022-10-14T05:44:32.099Z,36.58
2022-10-14T05:47:02.924Z,34.40
2022-10-14T05:49:32.257Z,37.85
2022-10-14T05:52:04.614Z,36.35
2022-10-14T05:54:38.525Z,40.50
2022-10-14T05:57:10.236Z,41.50
2022-10-14T05:59:39.589Z,42.25
2022-10-14T06:02:10.698Z,35.05
2022-10-14T06:04:42.449Z,35.05
2022-10-14T06:07:11.565Z,37.58
2022-10-14T06:09:42.488Z,38.70
2022-10-14T06:12:11.140Z,42.92
2022-10-14T06:14:41.799Z,34.53
2022-10-14T06:17:12.996Z,36.65
2022-10-14T06:19:41.530Z,34.13
2022-10-14T06:22:12.220Z,36.33
2022-10-14T06:24:40.700Z,46.90
2022-10-14T06:27:09.719Z,32.28
2022-10-14T06:29:40.480Z,31.98
2022-10-14T06:32:10.481Z,31.20
2022-10-14T06:34:42.048Z,26.85
2022-10-14T06:37:10.353Z,25.65
2022-10-14T06:39:45.175Z,26.10
2022-10-14T06:42:14.945Z,28.92
2022-10-14T06:44:46.716Z,25.60
2022-10-14T06:47:17.132Z,30.45
2022-10-14T06:49:46.124Z,25.70
2022-10-14T06:52:14.995Z,27.67
2022-10-14T06:54:48.488Z,27.25
2022-10-14T06:57:19.904Z,25.73
2022-10-14T06:59:49.347Z,20.70
2022-10-14T07:02:20.584Z,28.08
2022-10-14T07:04:51.056Z,28.58
2022-10-14T07:07:21.124Z,23.90
2022-10-14T07:09:49.345Z,19.48
2022-10-14T07:12:21.203Z,21.67
2022-10-14T07:14:57.072Z,25.05
2022-10-14T07:17:26.242Z,17.48
2022-10-14T07:19:54.552Z,18.05
2022-10-14T07:22:25.147Z,16.25
2022-10-14T07:24:54.697Z,24.75
2022-10-14T07:27:23.303Z,19.00
2022-10-14T07:29:52.294Z,15.20
2022-10-14T07:32:20.933Z,19.17
2022-10-14T07:34:49.214Z,19.33
2022-10-14T07:37:18.268Z,21.95
2022-10-14T07:39:50.410Z,17.33
2022-10-14T07:44:54.393Z,21.88
2022-10-14T07:47:25.168Z,16.52
2022-10-14T07:49:57.186Z,15.07
2022-10-14T07:52:25.682Z,17.23
2022-10-14T07:54:53.997Z,14.38
2022-10-14T07:57:27.633Z,13.80
2022-10-14T07:59:57.605Z,14.40
2022-10-14T08:02:39.364Z,15.63
2022-10-14T08:05:36.741Z,16.50
2022-10-14T08:08:01.080Z,15.30
2022-10-14T08:10:32.126Z,14.18
2022-10-14T08:13:02.453Z,14.20
2022-10-14T08:15:35.241Z,10.57
2022-10-14T08:18:06.757Z,15.68
2022-10-14T08:20:37.756Z,15.60
2022-10-14T08:23:06.506Z,12.25
2022-10-14T08:25:37.310Z,13.80
2022-10-14T08:28:07.244Z,10.43
2022-10-14T08:30:39.058Z,14.98
2022-10-14T08:33:20.988Z,17.80
2022-10-14T08:35:53.822Z,20.45
2022-10-14T08:38:26.507Z,8.52
2022-10-14T08:41:03.576Z,9.85
2022-10-14T08:43:39.273Z,7.13
2022-10-14T08:46:12.022Z,15.27
2022-10-14T08:48:40.834Z,10.23
2022-10-14T08:51:15.314Z,6.80
2022-10-14T08:53:44.189Z,7.75
2022-10-14T08:56:13.264Z,5.25
2022-10-14T08:58:42.802Z,9.18
2022-10-14T09:01:31.210Z,5.93
2022-10-14T09:04:07.119Z,8.55
2022-10-14T09:06:40.841Z,5.95
2022-10-14T09:09:19.894Z,5.88
2022-10-14T09:11:51.491Z,4.70
2022-10-14T09:14:22.037Z,4.53
2022-10-14T09:16:58.410Z,7.97
2022-10-14T09:19:29.842Z,4.63
2022-10-14T09:21:59.493Z,7.10
2022-10-14T09:24:36.317Z,7.03
2022-10-14T09:27:14.864Z,7.78
2022-10-14T09:29:49.621Z,6.47
2022-10-14T09:32:38.348Z,4.63
2022-10-14T09:35:16.528Z,6.05
2022-10-14T09:37:50.441Z,16.85
2022-10-14T09:40:21.871Z,4.28
2022-10-14T09:43:05.727Z,5.82
2022-10-14T09:45:54.630Z,6.93
2022-10-14T09:48:32.744Z,5.65
2022-10-14T09:51:03.151Z,3.97
2022-10-14T09:53:34.181Z,5.93
2022-10-14T09:56:04.792Z,6.07
2022-10-14T09:58:57.270Z,3.83
2022-10-14T10:01:30.800Z,3.85
2022-10-14T10:04:19.105Z,4.35
2022-10-14T10:06:54.547Z,8.70
2022-10-14T10:09:23.152Z,9.48
2022-10-14T10:11:52.379Z,6.35
2022-10-14T10:14:32.458Z,11.65
2022-10-14T10:17:11.225Z,6.60
2022-10-14T10:19:39.828Z,12.80
2022-10-14T10:22:23.040Z,15.65
2022-10-14T10:24:53.715Z,4.65
2022-10-14T10:27:26.816Z,4.45
2022-10-14T10:29:57.579Z,4.25
2022-10-14T10:32:56.146Z,5.13
2022-10-14T10:35:27.939Z,4.32
2022-10-14T10:38:05.231Z,4.15
2022-10-14T10:40:52.929Z,3.90
2022-10-14T10:43:32.358Z,5.75
2022-10-14T10:46:13.386Z,9.18
2022-10-14T10:49:17.243Z,6.78
2022-10-14T10:51:53.529Z,4.03
2022-10-14T10:54:41.856Z,10.93
2022-10-14T10:57:27.665Z,4.50
2022-10-14T11:00:00.493Z,7.90
2022-10-14T11:02:55.454Z,9.35
2022-10-14T11:05:35.674Z,7.53
2022-10-14T11:08:37.021Z,7.57
2022-10-14T11:11:40.983Z,9.23
2022-10-14T11:14:18.584Z,6.43
2022-10-14T11:17:03.533Z,6.53
2022-10-14T11:19:52.418Z,15.10
2022-10-14T11:22:22.192Z,10.95
2022-10-14T11:25:03.055Z,11.85
2022-10-14T11:27:47.314Z,8.38
2022-10-14T11:30:17.534Z,11.65
2022-10-14T11:32:51.555Z,9.43
2022-10-14T11:35:40.847Z,11.02
2022-10-14T11:41:20.558Z,14.02
2022-10-14T11:43:53.540Z,16.30
2022-10-14T11:46:23.038Z,16.27
2022-10-14T11:49:02.533Z,14.00
2022-10-14T11:51:35.935Z,18.17
2022-10-14T11:54:08.424Z,18.65
2022-10-14T11:56:49.604Z,21.13
2022-10-14T11:59:41.357Z,23.58
2022-10-14T12:02:33.008Z,34.58
2022-10-14T12:07:54.215Z,27.55
2022-10-14T12:10:36.843Z,22.95
2022-10-14T12:13:12.445Z,21.10
2022-10-14T12:15:51.448Z,27.17
2022-10-14T12:18:20.475Z,30.38
2022-10-14T12:21:00.425Z,26.60
2022-10-14T12:23:35.278Z,23.38
2022-10-14T12:26:27.443Z,29.77
2022-10-14T12:28:57.725Z,23.80
2022-10-14T12:31:29.505Z,19.50
2022-10-14T12:34:13.439Z,27.25
2022-10-14T12:36:46.857Z,27.40
2022-10-14T12:39:18.502Z,32.58
2022-10-14T12:41:47.897Z,22.63
2022-10-14T12:44:18.765Z,17.05
2022-10-14T12:46:49.507Z,20.23
2022-10-14T12:49:27.779Z,25.25
2022-10-14T12:52:01.414Z,22.77
2022-10-14T12:54:31.122Z,25.35
2022-10-14T12:57:02.997Z,22.23
2022-10-14T12:59:36.345Z,23.80
2022-10-14T13:02:22.476Z,28.00
2022-10-14T13:04:57.058Z,30.15
2022-10-14T13:07:44.677Z,24.13
2022-10-14T13:10:29.252Z,28.50
2022-10-14T13:13:00.946Z,21.58
2022-10-14T13:15:34.228Z,22.10
2022-10-14T13:18:22.210Z,22.45
2022-10-14T13:20:51.382Z,21.60
2022-10-14T13:23:22.744Z,24.02
2022-10-14T13:25:53.108Z,23.48
2022-10-14T13:28:22.919Z,19.70
2022-10-14T13:30:50.983Z,22.00
2022-10-14T13:33:37.867Z,22.55
2022-10-14T13:36:21.535Z,23.98
2022-10-14T13:38:57.981Z,22.38
2022-10-14T13:41:31.426Z,50.25
2022-10-14T13:44:01.600Z,27.60
2022-10-14T13:46:36.308Z,26.80
2022-10-14T13:51:45.897Z,30.65
2022-10-14T13:54:17.256Z,26.80
2022-10-14T14:00:40.206Z,37.88
2022-10-14T14:03:27.104Z,30.48
2022-10-14T14:05:56.496Z,29.23
2022-10-14T14:08:39.123Z,35.00
2022-10-14T14:11:18.935Z,28.42
2022-10-14T14:14:00.647Z,27.88
2022-10-14T14:16:39.541Z,30.20
2022-10-14T14:19:26.316Z,27.33
2022-10-14T14:22:09.480Z,26.45
2022-10-14T14:24:39.510Z,30.83
2022-10-14T14:27:13.251Z,28.50
2022-10-14T14:29:44.297Z,26.35
2022-10-14T14:32:23.983Z,29.05
2022-10-14T14:34:56.012Z,23.27
2022-10-14T14:37:54.962Z,24.63
2022-10-14T14:40:32.675Z,24.15
2022-10-14T14:43:03.920Z,32.95
2022-10-14T14:45:43.721Z,27.70
2022-10-14T14:48:17.040Z,30.58
2022-10-14T14:50:52.861Z,35.20
2022-10-14T14:53:29.705Z,33.03
2022-10-14T14:56:09.119Z,34.33
2022-10-14T14:58:47.179Z,44.75
2022-10-14T15:01:20.809Z,44.78
2022-10-14T15:04:13.341Z,34.13
2022-10-14T15:07:21.269Z,30.70
2022-10-14T15:09:55.399Z,31.73
2022-10-14T15:12:31.105Z,31.88
2022-10-14T15:15:01.244Z,31.13
2022-10-14T15:17:41.315Z,38.45
2022-10-14T15:20:19.795Z,33.78
2022-10-14T15:23:03.939Z,34.78
2022-10-14T15:25:37.457Z,32.22
2022-10-14T15:28:08.339Z,33.25
2022-10-14T15:30:45.298Z,35.72
2022-10-14T15:33:17.907Z,40.60
2022-10-14T15:36:01.804Z,34.40
2022-10-14T15:38:35.150Z,37.83
2022-10-14T15:41:07.214Z,37.25
2022-10-14T15:43:36.081Z,34.25
2022-10-14T15:46:22.497Z,34.78
2022-10-14T15:48:55.769Z,35.00
2022-10-14T15:51:29.828Z,56.08
2022-10-14T15:53:59.128Z,195.02
2022-10-14T15:56:42.439Z,56.22
2022-10-14T15:59:20.591Z,35.65
2022-10-14T16:01:52.849Z,34.28
2022-10-14T16:04:24.694Z,33.55
2022-10-14T16:06:55.078Z,31.73
2022-10-14T16:09:24.804Z,39.38
2022-10-14T16:11:58.159Z,34.95
2022-10-14T16:14:46.026Z,31.55
2022-10-14T16:17:26.722Z,31.27
2022-10-14T16:20:09.920Z,33.63
2022-10-14T16:22:58.378Z,32.72
2022-10-14T16:25:45.361Z,32.53
2022-10-14T16:28:19.481Z,33.78
2022-10-14T16:30:57.677Z,32.45
2022-10-14T16:33:43.258Z,36.30
2022-10-14T16:36:31.017Z,25.63
2022-10-14T16:39:00.413Z,29.70
2022-10-14T16:41:31.828Z,25.50
2022-10-14T16:44:00.974Z,27.80
2022-10-14T16:47:04.127Z,27.48
2022-10-14T16:49:45.248Z,32.03
2022-10-14T16:52:14.853Z,27.42
2022-10-14T16:54:49.859Z,31.10
2022-10-14T16:57:22.185Z,29.25
2022-10-14T16:59:55.686Z,30.33
2022-10-14T17:02:31.779Z,38.72
2022-10-14T17:05:03.947Z,30.15
2022-10-14T17:07:37.182Z,35.72
2022-10-14T17:10:06.588Z,29.20
2022-10-14T17:12:42.254Z,34.97
2022-10-14T17:15:10.893Z,32.35
2022-10-14T17:17:53.659Z,36.05
2022-10-14T17:20:22.056Z,43.22
2022-10-14T17:22:56.686Z,29.70
2022-10-14T17:25:27.144Z,35.60
2022-10-14T17:27:57.298Z,30.15
2022-10-14T17:30:27.215Z,39.63
2022-10-14T17:33:14.721Z,34.13
2022-10-14T17:35:45.663Z,31.20
2022-10-14T17:38:14.756Z,34.42
2022-10-14T17:40:44.956Z,24.75
2022-10-14T17:43:14.214Z,28.58
2022-10-14T17:45:42.871Z,30.42
2022-10-14T17:48:11.714Z,22.95
2022-10-14T17:50:41.500Z,30.10
2022-10-14T17:53:11.943Z,29.00
2022-10-14T17:55:40.602Z,26.88
2022-10-14T17:58:09.803Z,26.30
2022-10-14T18:00:38.345Z,26.85
2022-10-14T18:03:25.937Z,24.23
2022-10-14T18:06:18.147Z,32.83
2022-10-14T18:09:06.016Z,44.03
2022-10-14T18:12:08.086Z,26.55
2022-10-14T18:14:40.312Z,22.42
2022-10-14T18:17:10.875Z,28.40
2022-10-14T18:19:40.741Z,25.65
2022-10-14T18:22:11.033Z,29.38
2022-10-14T18:24:59.590Z,23.98
2022-10-14T18:27:47.124Z,27.58
2022-10-14T18:30:28.433Z,35.72
2022-10-14T18:33:09.734Z,29.83
2022-10-14T18:35:45.123Z,25.65
2022-10-14T18:38:32.053Z,24.17
2022-10-14T18:41:14.450Z,30.10
2022-10-14T18:43:54.746Z,27.90
2022-10-14T18:46:25.383Z,22.40
2022-10-14T18:48:55.328Z,23.60
2022-10-14T18:51:25.724Z,32.13
2022-10-14T18:53:55.255Z,26.55
2022-10-14T18:56:25.052Z,28.58
2022-10-14T18:58:58.693Z,25.23
2022-10-14T19:01:28.290Z,32.40
2022-10-14T19:03:57.299Z,28.55
2022-10-14T19:06:26.837Z,29.58
2022-10-14T19:09:11.972Z,27.17
2022-10-14T19:11:54.572Z,30.73
2022-10-14T19:14:42.076Z,28.88
2022-10-14T19:17:25.901Z,21.38
2022-10-14T19:19:55.420Z,31.33
2022-10-14T19:22:25.455Z,33.53
2022-10-14T19:24:54.774Z,28.35
2022-10-14T19:27:26.052Z,28.30
2022-10-14T19:29:55.793Z,28.80
2022-10-14T19:32:25.529Z,36.08
2022-10-14T19:35:01.992Z,32.13
2022-10-14T19:37:37.598Z,38.15
2022-10-14T19:40:19.856Z,38.38
2022-10-14T19:42:56.400Z,50.67
2022-10-14T19:45:25.215Z,43.53
2022-10-14T19:47:53.611Z,41.58
2022-10-14T19:50:21.941Z,39.90
2022-10-14T19:52:53.768Z,37.65
2022-10-14T19:55:36.305Z,36.67
2022-10-14T19:58:15.232Z,29.75
2022-10-14T20:00:57.955Z,31.60
2022-10-14T20:03:38.940Z,28.40
2022-10-14T20:06:08.846Z,32.83
2022-10-14T20:08:37.999Z,34.00
2022-10-14T20:11:07.862Z,31.70
2022-10-14T20:13:37.953Z,34.10
2022-10-14T20:16:09.181Z,28.17
2022-10-14T20:18:55.369Z,27.42
2022-10-14T20:21:33.947Z,30.15
2022-10-14T20:24:18.000Z,31.10
2022-10-14T20:27:06.660Z,26.50
2022-10-14T20:29:55.832Z,28.27
2022-10-14T20:32:38.048Z,26.80
2022-10-14T20:35:20.724Z,29.55
2022-10-14T20:38:02.067Z,23.85
2022-10-14T20:40:40.663Z,25.15
2022-10-14T20:43:17.149Z,35.50
2022-10-14T20:46:00.376Z,31.98
2022-10-14T20:48:37.300Z,25.83
2022-10-14T20:51:06.744Z,22.70
2022-10-14T20:53:44.740Z,24.35
2022-10-14T20:56:14.208Z,30.67
2022-10-14T20:58:57.655Z,24.92
2022-10-14T21:01:26.588Z,26.40
2022-10-14T21:04:14.141Z,24.90
2022-10-14T21:07:01.912Z,23.27
2022-10-14T21:09:39.637Z,23.27
2022-10-14T21:12:09.088Z,25.10
2022-10-14T21:14:37.420Z,23.77
2022-10-14T21:17:05.933Z,19.85
2022-10-14T21:19:35.038Z,19.63
2022-10-14T21:22:03.921Z,23.88
2022-10-14T21:24:40.964Z,18.65
2022-10-14T21:27:15.384Z,25.30
2022-10-14T21:29:57.506Z,22.25
2022-10-14T21:32:36.823Z,29.23
2022-10-14T21:35:13.657Z,23.95
2022-10-14T21:37:57.114Z,23.60
2022-10-14T21:40:35.121Z,24.52
2022-10-14T21:43:15.945Z,20.23
2022-10-14T21:45:56.216Z,21.80
2022-10-14T21:48:35.881Z,25.40
2022-10-14T21:51:19.708Z,20.60
2022-10-14T21:53:59.771Z,24.98
2022-10-14T21:56:36.404Z,22.70
2022-10-14T21:59:22.895Z,25.15
2022-10-14T22:02:05.047Z,24.17
2022-10-14T22:04:51.715Z,20.92
2022-10-14T22:07:20.507Z,20.33
2022-10-14T22:09:50.132Z,24.40
2022-10-14T22:12:20.400Z,27.95
2022-10-14T22:14:50.139Z,21.00
2022-10-14T22:17:18.501Z,20.10
2022-10-14T22:19:47.473Z,23.27
2022-10-14T22:22:17.878Z,21.55
2022-10-14T22:24:46.563Z,22.10
2022-10-14T22:27:15.813Z,21.00
2022-10-14T22:29:45.025Z,22.33
2022-10-14T22:32:15.459Z,20.48
2022-10-14T22:34:45.150Z,20.00
2022-10-14T22:37:13.966Z,25.02
2022-10-14T22:39:42.260Z,16.23
2022-10-14T22:42:10.621Z,23.25
2022-10-14T22:44:52.123Z,25.17
2022-10-14T22:47:21.181Z,17.95
2022-10-14T22:49:58.115Z,26.42
2022-10-14T22:52:37.043Z,27.13
2022-10-14T22:55:06.321Z,19.08
2022-10-14T22:57:36.756Z,20.98
2022-10-14T23:00:05.895Z,18.02
2022-10-14T23:02:53.395Z,19.63
2022-10-14T23:05:26.013Z,20.00
2022-10-14T23:07:59.045Z,24.27
2022-10-14T23:10:28.745Z,22.85
2022-10-14T23:13:11.352Z,23.10
2022-10-14T23:15:41.996Z,21.10
2022-10-14T23:18:19.543Z,23.27
2022-10-14T23:21:28.452Z,24.77
2022-10-14T23:24:04.965Z,24.55
2022-10-14T23:26:37.084Z,22.45
2022-10-14T23:29:07.368Z,28.33
2022-10-14T23:31:36.482Z,28.00
2022-10-14T23:34:06.651Z,29.27
2022-10-14T23:36:37.370Z,29.08
2022-10-14T23:39:06.989Z,44.42
2022-10-14T23:41:35.518Z,35.60
2022-10-14T23:44:05.365Z,30.70
2022-10-14T23:46:35.496Z,37.05
2022-10-14T23:49:21.193Z,33.17
2022-10-14T23:51:52.351Z,31.63
2022-10-14T23:54:20.709Z,30.83
2022-10-14T23:56:49.981Z,26.83
2022-10-14T23:59:36.375Z,29.90
